Eastsound, WA (98245)

5:59 AM PDT on July 28, 2016 (GMT -0700)
West Slope Mount Constitution - Orcas Island | | Change Station

Elev 1033 ft 48.67 °N, 122.87 °W | Updated 12 minutes ago

Clear
Clear
60.7 °F
Feels Like 60.7 °F
N
8.0
Wind Variable Wind from NNW
Gusts 20.0 mph

Today
High -- | Low -- °F
--% Chance of Precip.
Yesterday
High -- | Low -- °F
Precip. -- in
Pressure 30.10 in
Visibility 10.0 miles
Clouds Clear
Dew Point 57 °F
Humidity 86%
Rainfall 0.00 in
Snow Depth Not available.
5:41 AM 8:54 PM
Waning Crescent, 32% visible
METAR KORS 281255Z AUTO 00000KT 10SM CLR 14/13 A3010 RMK AO2
Pressure 30.10 in
Visibility 10.0 miles
Clouds Clear
Dew Point 57 °F
Humidity 86%
Rainfall 0.00 in
Snow Depth Not available.
5:41 AM 8:54 PM
Waning Crescent, 32% visible
METAR KORS 281255Z AUTO 00000KT 10SM CLR 14/13 A3010 RMK AO2

10-Day Weather Forecast

Almanac

Astronomy

Jul. 28, 2016 Rise Set
Actual Time
Civil Twilight
Nautical Twilight
Astronomical Twilight
Moon
Length of Visible Light
Length of Day
Tomorrow will be .
, % of the Moon is Illuminated

Today's Extremes

State Highs State Lows

Community

WunderPhotos

Upload Photos

1,928,101 photos uploaded!

WunderBlog® & News

Nearby

Air Quality

  Air Quality AQ Index Pollutant
Not available.

Snow Depth

Station Depth Elevation

Earthquake Activity

City Distance Mag. Time & Date
Minimum magnitude displayed is 2.5.

Coastal Water Temperatures

Place Temperature

Stations

Nearby Weather Stations

Station Location Temp. Windchill Dew Point Humidity Wind Precip. Elev Updated Type
                   

Watches & Warnings

There are currently no watches in effect.